Time;durP1;ratioP1;P1;durP2;ratioP2;P2;SDS_P1;SDS_P2;PMS_P1;PMS_P2;Temp;Humidity;BMP_temperature;BMP_pressure;BME280_temperature;BME280_humidity;BME280_pressure;Samples;Min_cycle;Max_cycle;Signal;HPM_P1;HPM_P2
2023/04/14 00:02:26;;;;;;;4.25;3.40;;;5.10;99.90;;;;;;5080369;28;20268;-71
2023/04/14 00:05:12;;;;;;;8.05;3.85;;;5.00;99.90;;;;;;5089888;28;20210;-71
2023/04/14 00:07:58;;;;;;;4.93;3.50;;;5.00;99.90;;;;;;5087225;28;20300;-70
2023/04/14 00:10:44;;;;;;;4.15;3.63;;;5.00;99.90;;;;;;5084314;28;20299;-70
2023/04/14 00:13:29;;;;;;;3.85;3.42;;;4.90;99.90;;;;;;5082140;28;20197;-70
2023/04/14 00:16:17;;;;;;;7.80;3.97;;;4.90;99.90;;;;;;5085355;28;20216;-70
2023/04/14 00:19:02;;;;;;;5.67;3.93;;;5.00;99.90;;;;;;5087242;28;20425;-70
2023/04/14 00:21:48;;;;;;;10.48;5.07;;;5.10;99.90;;;;;;5077774;28;20835;-69
2023/04/14 00:24:39;;;;;;;5.28;3.65;;;4.90;99.90;;;;;;5082757;28;21658;-71
2023/04/14 00:27:25;;;;;;;5.38;3.90;;;5.00;99.90;;;;;;5081429;28;20220;-70
2023/04/14 00:30:11;;;;;;;4.97;3.70;;;5.00;99.90;;;;;;5084694;28;20806;-70
2023/04/14 00:32:58;;;;;;;5.75;4.40;;;4.90;99.90;;;;;;5092927;28;20670;-70
2023/04/14 00:35:43;;;;;;;10.32;4.03;;;4.80;99.90;;;;;;5087126;28;20277;-70
2023/04/14 00:38:30;;;;;;;11.63;5.45;;;4.80;99.90;;;;;;5087137;28;20233;-70
2023/04/14 00:41:15;;;;;;;7.55;4.70;;;4.80;99.90;;;;;;5079083;28;20213;-70
2023/04/14 00:44:01;;;;;;;7.45;3.78;;;4.80;99.90;;;;;;5087480;28;20686;-71
2023/04/14 00:46:47;;;;;;;6.65;3.90;;;4.80;99.90;;;;;;5085831;28;20625;-69
2023/04/14 00:49:37;;;;;;;5.28;3.83;;;4.90;99.90;;;;;;5086050;28;20692;-71
2023/04/14 00:52:24;;;;;;;4.35;3.67;;;4.90;99.90;;;;;;5088289;28;20526;-70
2023/04/14 00:55:11;;;;;;;5.97;3.33;;;4.80;99.90;;;;;;5086153;28;20223;-70
2023/04/14 00:57:57;;;;;;;5.38;3.58;;;4.90;99.90;;;;;;5082208;28;20678;-70
2023/04/14 01:00:42;;;;;;;4.55;3.55;;;4.90;99.90;;;;;;5083852;28;20459;-69
2023/04/14 01:03:28;;;;;;;5.63;3.58;;;4.90;99.90;;;;;;5088485;28;20713;-71
2023/04/14 01:06:15;;;;;;;6.70;3.25;;;4.70;99.90;;;;;;5083392;28;20264;-70
2023/04/14 01:09:01;;;;;;;6.20;3.00;;;4.70;99.90;;;;;;5086905;28;20822;-70
2023/04/14 01:12:01;;;;;;;5.00;3.70;;;4.60;99.90;;;;;;5081846;28;20198;-70
2023/04/14 01:14:55;;;;;;;4.00;3.10;;;4.60;99.90;;;;;;5083538;28;20209;-70
2023/04/14 01:17:45;;;;;;;4.97;3.47;;;4.40;99.90;;;;;;5087904;28;20278;-70
2023/04/14 01:20:35;;;;;;;4.28;3.58;;;4.40;99.90;;;;;;5087255;28;20201;-70
2023/04/14 01:23:26;;;;;;;4.57;3.38;;;4.40;99.90;;;;;;5088808;28;20325;-69
2023/04/14 01:26:20;;;;;;;5.32;3.67;;;4.50;99.90;;;;;;5089920;28;20217;-70
2023/04/14 01:29:31;;;;;;;6.35;3.50;;;4.50;99.90;;;;;;5085398;28;20710;-70
2023/04/14 01:32:22;;;;;;;8.00;3.53;;;4.50;99.90;;;;;;5083786;28;20221;-70
2023/04/14 01:35:13;;;;;;;6.38;4.00;;;4.50;99.90;;;;;;5084825;28;20249;-70
2023/04/14 01:38:03;;;;;;;3.78;3.38;;;4.40;99.90;;;;;;5086334;28;20209;-71
2023/04/14 01:40:52;;;;;;;5.25;2.90;;;4.50;99.90;;;;;;5084703;28;20206;-70
2023/04/14 01:43:44;;;;;;;8.25;3.30;;;4.60;99.90;;;;;;5087948;28;20354;-70
2023/04/14 01:46:30;;;;;;;3.92;3.15;;;4.60;99.90;;;;;;5087049;28;20201;-70
2023/04/14 01:49:19;;;;;;;6.20;3.30;;;4.50;99.90;;;;;;5088952;28;20602;-70
2023/04/14 01:52:08;;;;;;;7.35;3.08;;;4.50;99.90;;;;;;5086571;28;20213;-70
2023/04/14 01:54:55;;;;;;;8.75;3.85;;;4.40;99.90;;;;;;5090631;28;20264;-71
2023/04/14 01:57:42;;;;;;;5.40;4.30;;;4.20;99.90;;;;;;5088853;28;20739;-70
2023/04/14 02:00:29;;;;;;;5.30;3.42;;;4.20;99.90;;;;;;5085382;28;20230;-70
2023/04/14 02:03:17;;;;;;;5.57;4.07;;;4.20;99.90;;;;;;5090056;28;20224;-70
2023/04/14 02:06:05;;;;;;;5.55;3.55;;;4.20;99.90;;;;;;5087213;28;20245;-70
2023/04/14 02:08:52;;;;;;;5.85;3.75;;;4.20;99.90;;;;;;5087562;28;20749;-69
2023/04/14 02:11:39;;;;;;;6.35;3.20;;;4.20;99.90;;;;;;5084047;28;20652;-69
2023/04/14 02:14:25;;;;;;;6.90;3.10;;;4.20;99.90;;;;;;5088946;28;20205;-70
2023/04/14 02:17:12;;;;;;;5.10;3.40;;;4.20;99.90;;;;;;5087290;28;20210;-70
2023/04/14 02:19:59;;;;;;;4.55;2.50;;;4.20;99.90;;;;;;5088261;28;20343;-70
2023/04/14 02:22:47;;;;;;;5.95;3.53;;;4.20;99.90;;;;;;5086503;28;20226;-70
2023/04/14 02:25:34;;;;;;;4.68;3.45;;;4.10;99.90;;;;;;5089639;28;20544;-70
2023/04/14 02:28:23;;;;;;;3.78;2.90;;;4.10;99.90;;;;;;5087260;28;20573;-70
2023/04/14 02:31:12;;;;;;;4.63;3.33;;;3.90;99.90;;;;;;5083284;28;20206;-70
2023/04/14 02:34:00;;;;;;;5.22;3.45;;;4.00;99.90;;;;;;5088834;28;20208;-70
2023/04/14 02:36:52;;;;;;;7.00;5.13;;;4.00;99.90;;;;;;5082021;28;20206;-70
2023/04/14 02:39:42;;;;;;;12.00;4.55;;;4.10;99.90;;;;;;5095092;22;20777;-71
2023/04/14 02:42:31;;;;;;;28.10;4.40;;;4.10;99.90;;;;;;5062215;28;20222;-70
2023/04/14 02:45:24;;;;;;;17.73;4.40;;;3.90;99.90;;;;;;5064646;28;20351;-70
2023/04/14 02:48:13;;;;;;;19.27;5.40;;;3.80;99.90;;;;;;5063979;28;20587;-70
2023/04/14 02:51:00;;;;;;;17.20;3.90;;;3.70;99.90;;;;;;5056567;28;20653;-70
2023/04/14 02:53:47;;;;;;;10.38;4.15;;;3.70;99.90;;;;;;5068017;28;20210;-70
2023/04/14 02:56:35;;;;;;;10.70;4.35;;;3.70;99.90;;;;;;5063866;28;20538;-70
2023/04/14 02:59:22;;;;;;;5.22;4.32;;;3.80;99.90;;;;;;5059751;28;20720;-70
2023/04/14 03:02:10;;;;;;;6.30;4.07;;;3.70;99.90;;;;;;5065636;28;20722;-70
2023/04/14 03:04:55;;;;;;;5.70;3.40;;;3.70;99.90;;;;;;5068131;28;20207;-70
2023/04/14 03:07:43;;;;;;;4.85;3.80;;;3.90;99.90;;;;;;5065749;28;20571;-71
2023/04/14 03:10:28;;;;;;;13.20;4.18;;;4.00;99.90;;;;;;5065350;28;20218;-70
2023/04/14 03:13:18;;;;;;;5.68;3.90;;;4.10;99.90;;;;;;5068457;28;20587;-71
2023/04/14 03:16:04;;;;;;;4.57;3.78;;;4.00;99.90;;;;;;5064668;28;20587;-70
2023/04/14 03:18:52;;;;;;;7.68;4.55;;;3.90;99.90;;;;;;5066134;28;20334;-70
2023/04/14 03:21:38;;;;;;;7.57;4.50;;;3.80;99.90;;;;;;5066831;28;20332;-70
2023/04/14 03:24:29;;;;;;;5.55;3.92;;;3.90;99.90;;;;;;5069360;28;20285;-70
2023/04/14 03:27:20;;;;;;;21.55;3.60;;;3.90;99.90;;;;;;5064692;28;20289;-70
2023/04/14 03:30:10;;;;;;;32.55;5.35;;;3.90;99.90;;;;;;5062837;28;20233;-71
2023/04/14 03:32:59;;;;;;;19.20;5.35;;;3.90;99.90;;;;;;5065751;28;20244;-70
2023/04/14 03:35:46;;;;;;;6.05;5.18;;;3.80;99.90;;;;;;5067069;28;20267;-70
2023/04/14 03:38:33;;;;;;;16.25;5.05;;;3.80;99.90;;;;;;5063656;28;20227;-70
2023/04/14 03:41:21;;;;;;;38.65;5.75;;;3.80;99.90;;;;;;5066478;28;20215;-70
2023/04/14 03:44:14;;;;;;;20.17;5.20;;;3.70;99.90;;;;;;5066896;28;20227;-70
2023/04/14 03:47:02;;;;;;;7.72;5.82;;;3.60;99.90;;;;;;5066852;28;20206;-70
2023/04/14 03:49:50;;;;;;;12.77;5.57;;;3.60;99.90;;;;;;5061891;28;20249;-70
2023/04/14 03:52:37;;;;;;;34.60;5.60;;;3.60;99.90;;;;;;5067459;28;20299;-70
2023/04/14 03:55:26;;;;;;;21.20;5.63;;;3.60;99.90;;;;;;5067788;28;22032;-70
2023/04/14 03:58:13;;;;;;;8.32;5.63;;;3.60;99.90;;;;;;5067319;28;20499;-70
2023/04/14 04:01:00;;;;;;;7.70;4.65;;;3.70;99.90;;;;;;5065520;28;20371;-70
2023/04/14 04:03:48;;;;;;;16.80;4.82;;;3.80;99.90;;;;;;5062344;28;20353;-70
2023/04/14 04:06:35;;;;;;;133.73;6.13;;;3.80;99.90;;;;;;5066587;28;20210;-70
2023/04/14 04:09:23;;;;;;;6.03;4.35;;;3.70;99.90;;;;;;5061384;28;20226;-70
2023/04/14 04:12:11;;;;;;;6.40;5.35;;;3.70;99.90;;;;;;5064964;28;20685;-70
2023/04/14 04:14:56;;;;;;;7.22;3.85;;;3.60;99.90;;;;;;5067771;28;20679;-70
2023/04/14 04:17:43;;;;;;;7.13;4.78;;;3.70;99.90;;;;;;5065991;28;20202;-70
2023/04/14 04:20:32;;;;;;;12.07;3.72;;;3.70;99.90;;;;;;5062490;28;20727;-70
2023/04/14 04:23:18;;;;;;;4.05;3.60;;;3.70;99.90;;;;;;5062240;28;20727;-70
2023/04/14 04:26:05;;;;;;;5.57;4.13;;;3.70;99.90;;;;;;5065596;28;20207;-70
2023/04/14 04:28:51;;;;;;;3.70;3.40;;;3.70;99.90;;;;;;5061023;28;20214;-71
2023/04/14 04:31:37;;;;;;;3.72;3.17;;;3.80;99.90;;;;;;5066656;28;20333;-71
2023/04/14 04:34:24;;;;;;;3.40;3.10;;;3.80;99.90;;;;;;5064029;28;20695;-70
2023/04/14 04:37:12;;;;;;;3.60;3.15;;;3.70;99.90;;;;;;5064202;28;20440;-70
2023/04/14 04:39:57;;;;;;;6.43;3.70;;;3.70;99.90;;;;;;5062513;28;20237;-70
2023/04/14 04:42:43;;;;;;;6.63;3.80;;;3.70;99.90;;;;;;5065398;28;20833;-72
2023/04/14 04:45:58;;;;;;;14.50;3.70;;;3.70;99.90;;;;;;5063775;28;20696;-72
2023/04/14 04:48:43;;;;;;;27.88;4.28;;;3.60;99.90;;;;;;5057235;28;20206;-72
2023/04/14 04:51:30;;;;;;;4.72;3.90;;;3.50;99.90;;;;;;5068831;28;20570;-71
2023/04/14 04:54:17;;;;;;;6.18;3.70;;;3.40;99.90;;;;;;5070098;28;20280;-72
2023/04/14 04:57:02;;;;;;;5.50;4.15;;;3.40;99.90;;;;;;5069056;28;20608;-72
2023/04/14 04:59:48;;;;;;;4.53;3.63;;;3.30;99.90;;;;;;5064520;28;20328;-72
2023/04/14 05:02:34;;;;;;;4.60;3.97;;;3.30;99.90;;;;;;5073707;28;20325;-72
2023/04/14 05:05:20;;;;;;;4.75;3.95;;;3.40;99.90;;;;;;5068867;28;20624;-72
2023/04/14 05:08:06;;;;;;;4.90;3.60;;;3.40;99.90;;;;;;5067908;28;20214;-72
2023/04/14 05:10:53;;;;;;;5.28;4.63;;;3.50;99.90;;;;;;5065939;28;20519;-72
2023/04/14 05:13:39;;;;;;;5.05;4.40;;;3.50;99.90;;;;;;5070383;28;20563;-72
2023/04/14 05:16:24;;;;;;;17.98;4.97;;;3.50;99.90;;;;;;5067662;28;20339;-71
2023/04/14 05:19:10;;;;;;;28.08;6.10;;;3.50;99.90;;;;;;5064798;28;20225;-71
2023/04/14 05:21:56;;;;;;;40.63;6.22;;;3.50;99.90;;;;;;5071152;28;20206;-71
2023/04/14 05:24:47;;;;;;;7.60;5.95;;;3.60;99.90;;;;;;5071025;28;20304;-71
2023/04/14 05:27:34;;;;;;;8.73;5.40;;;3.50;99.90;;;;;;5066819;28;20727;-71
2023/04/14 05:30:20;;;;;;;9.35;5.60;;;3.50;99.90;;;;;;5069613;28;20280;-71
2023/04/14 05:33:06;;;;;;;19.77;6.28;;;3.50;99.90;;;;;;5071003;28;20225;-71
2023/04/14 05:35:52;;;;;;;28.35;5.45;;;3.60;99.90;;;;;;5069255;28;20205;-71
2023/04/14 05:38:39;;;;;;;58.72;7.22;;;3.60;99.90;;;;;;5069251;28;20214;-71
2023/04/14 05:41:25;;;;;;;9.93;7.55;;;3.60;99.90;;;;;;5069520;28;20342;-71
2023/04/14 05:44:12;;;;;;;22.50;6.53;;;3.60;99.90;;;;;;5068545;28;20226;-71
2023/04/14 05:46:57;;;;;;;9.80;5.90;;;3.60;99.90;;;;;;5067639;28;20687;-71
2023/04/14 05:49:43;;;;;;;43.08;6.30;;;3.60;99.90;;;;;;5066676;28;20233;-71
2023/04/14 05:52:29;;;;;;;27.95;6.22;;;3.60;99.90;;;;;;5069221;28;20206;-71
2023/04/14 05:55:15;;;;;;;19.20;6.57;;;3.50;99.90;;;;;;5067703;28;20210;-71
2023/04/14 05:58:01;;;;;;;44.70;6.97;;;3.50;99.90;;;;;;5062642;28;20571;-71
2023/04/14 06:00:48;;;;;;;8.20;6.20;;;3.70;99.90;;;;;;5064565;28;20230;-71
2023/04/14 06:03:34;;;;;;;27.60;7.53;;;3.70;99.90;;;;;;5069039;28;20237;-71
2023/04/14 06:06:19;;;;;;;7.90;6.47;;;3.80;99.90;;;;;;5064515;28;20701;-71
2023/04/14 06:09:05;;;;;;;8.63;5.97;;;3.90;99.90;;;;;;5066349;28;20225;-71
2023/04/14 06:11:51;;;;;;;6.72;5.68;;;4.00;99.90;;;;;;5069051;28;20201;-71
2023/04/14 06:14:36;;;;;;;7.60;6.07;;;4.00;99.90;;;;;;5068998;28;20203;-71
2023/04/14 06:17:23;;;;;;;7.85;5.90;;;4.10;99.90;;;;;;5066888;28;20293;-71
2023/04/14 06:20:10;;;;;;;10.30;5.75;;;4.20;99.90;;;;;;5068598;28;20726;-71
2023/04/14 06:22:56;;;;;;;11.20;5.30;;;4.30;99.90;;;;;;5069857;28;20209;-71
2023/04/14 06:25:42;;;;;;;13.90;6.32;;;4.40;99.90;;;;;;5066722;28;20690;-72
2023/04/14 06:28:27;;;;;;;16.92;5.15;;;4.40;99.90;;;;;;5064159;28;20211;-71
2023/04/14 06:31:14;;;;;;;11.75;5.20;;;4.50;99.90;;;;;;5068747;28;20277;-72
2023/04/14 06:34:01;;;;;;;6.30;5.38;;;4.60;99.90;;;;;;5069891;28;20217;-71
2023/04/14 06:36:46;;;;;;;7.85;5.82;;;4.70;99.90;;;;;;5066956;28;20211;-71
2023/04/14 06:39:32;;;;;;;5.28;4.60;;;4.80;99.90;;;;;;5068084;28;20240;-72
2023/04/14 06:42:18;;;;;;;4.80;3.80;;;4.90;99.90;;;;;;5069646;28;20202;-71
2023/04/14 06:45:04;;;;;;;5.25;4.50;;;5.00;99.90;;;;;;5064016;28;20596;-72
2023/04/14 06:47:49;;;;;;;4.78;4.00;;;5.10;99.90;;;;;;5064784;28;20201;-72
2023/04/14 06:50:37;;;;;;;3.72;3.17;;;5.30;99.90;;;;;;5067289;28;20346;-71
2023/04/14 06:53:22;;;;;;;4.70;3.40;;;5.40;99.90;;;;;;5069878;28;20285;-71
2023/04/14 06:56:08;;;;;;;5.05;3.80;;;5.50;99.90;;;;;;5063857;28;20203;-71
2023/04/14 06:58:53;;;;;;;8.13;4.93;;;5.60;99.90;;;;;;5068642;28;20741;-71
2023/04/14 07:01:40;;;;;;;8.15;4.60;;;5.70;99.90;;;;;;5065331;28;20224;-72
2023/04/14 07:04:26;;;;;;;4.97;4.22;;;5.80;99.90;;;;;;5061634;28;20633;-72
2023/04/14 07:07:13;;;;;;;7.82;4.25;;;5.90;99.90;;;;;;5066194;28;20223;-71
2023/04/14 07:09:59;;;;;;;10.67;5.03;;;5.90;99.90;;;;;;5066738;28;20245;-72
2023/04/14 07:12:44;;;;;;;5.55;3.53;;;6.10;99.90;;;;;;5068905;28;20460;-71
2023/04/14 07:15:30;;;;;;;7.78;4.43;;;6.20;99.90;;;;;;5063699;28;20199;-72
2023/04/14 07:18:16;;;;;;;8.80;5.00;;;6.30;99.90;;;;;;5063765;28;20687;-72
2023/04/14 07:21:02;;;;;;;9.63;6.30;;;6.50;99.90;;;;;;5063389;28;20981;-71
2023/04/14 07:23:48;;;;;;;13.50;6.80;;;6.60;99.90;;;;;;5067531;28;20958;-72
2023/04/14 07:26:34;;;;;;;17.65;7.00;;;6.80;99.90;;;;;;5065083;28;20448;-71
2023/04/14 07:29:19;;;;;;;13.20;6.40;;;7.00;99.90;;;;;;5067752;28;20612;-71
2023/04/14 07:32:06;;;;;;;16.33;7.15;;;7.20;99.90;;;;;;5066798;28;20458;-71
2023/04/14 07:34:51;;;;;;;12.43;5.83;;;7.30;99.90;;;;;;5059684;28;20234;-71
2023/04/14 07:37:37;;;;;;;12.57;6.30;;;7.50;99.90;;;;;;5066253;28;20442;-71
2023/04/14 07:40:24;;;;;;;18.57;7.00;;;7.60;99.90;;;;;;5066486;28;20867;-72
2023/04/14 07:43:10;;;;;;;12.75;6.75;;;7.80;99.90;;;;;;5065101;28;20466;-71
2023/04/14 07:45:56;;;;;;;16.70;6.70;;;7.80;99.90;;;;;;5065479;28;20339;-72
2023/04/14 07:48:42;;;;;;;11.43;6.20;;;7.80;99.90;;;;;;5067177;28;20908;-72
2023/04/14 07:51:27;;;;;;;11.80;5.90;;;7.90;99.90;;;;;;5064612;28;20500;-71
2023/04/14 07:54:13;;;;;;;13.50;6.40;;;8.00;99.90;;;;;;5061727;28;20579;-72
2023/04/14 07:57:00;;;;;;;8.57;5.10;;;8.10;99.90;;;;;;5061897;28;20423;-72
2023/04/14 07:59:45;;;;;;;9.53;4.57;;;8.30;99.90;;;;;;5061843;28;20490;-72
2023/04/14 08:02:31;;;;;;;15.80;6.27;;;8.40;99.90;;;;;;5063683;28;20457;-72
2023/04/14 08:05:17;;;;;;;11.13;5.33;;;8.60;99.90;;;;;;5061695;28;20473;-71
2023/04/14 08:08:03;;;;;;;11.33;5.63;;;8.70;99.90;;;;;;5065711;28;20437;-71
2023/04/14 08:10:48;;;;;;;10.77;6.17;;;8.90;99.90;;;;;;5060214;28;20831;-73
2023/04/14 08:13:35;;;;;;;9.33;4.13;;;9.10;99.90;;;;;;5066852;28;20448;-72
2023/04/14 08:16:21;;;;;;;12.40;5.07;;;9.20;99.90;;;;;;5062800;28;20441;-72
2023/04/14 08:19:06;;;;;;;11.43;5.50;;;9.30;99.90;;;;;;5062009;28;20618;-72
2023/04/14 08:21:52;;;;;;;12.00;5.47;;;9.40;99.90;;;;;;5067624;28;20808;-72
2023/04/14 08:24:38;;;;;;;10.43;5.20;;;9.50;99.90;;;;;;5063491;28;20477;-72
2023/04/14 08:27:24;;;;;;;10.47;4.80;;;9.60;99.90;;;;;;5062022;28;20446;-72
2023/04/14 08:30:12;;;;;;;10.40;3.80;;;9.70;99.90;;;;;;5063829;28;20476;-72
2023/04/14 08:32:57;;;;;;;11.37;5.23;;;9.80;99.90;;;;;;5065575;28;20522;-72
2023/04/14 08:35:43;;;;;;;6.80;3.90;;;9.80;99.90;;;;;;5062111;28;20442;-71
2023/04/14 08:38:28;;;;;;;13.30;5.10;;;9.90;99.90;;;;;;5064807;28;20471;-71
2023/04/14 08:41:15;;;;;;;12.87;4.43;;;10.00;99.90;;;;;;5097246;22;20480;-73
2023/04/14 08:44:01;;;;;;;12.50;4.23;;;10.10;99.90;;;;;;5082243;28;20463;-72
2023/04/14 08:46:51;;;;;;;14.03;5.17;;;10.10;99.90;;;;;;5084491;28;20444;-71
2023/04/14 08:49:41;;;;;;;9.33;4.17;;;10.20;99.90;;;;;;5081814;28;20467;-71
2023/04/14 08:52:29;;;;;;;8.37;4.17;;;10.20;99.90;;;;;;5080304;28;20509;-72
2023/04/14 08:55:15;;;;;;;8.20;4.23;;;10.30;99.90;;;;;;5079542;28;20462;-71
2023/04/14 08:58:02;;;;;;;9.80;3.80;;;10.30;99.90;;;;;;5080281;28;20513;-71
2023/04/14 09:00:49;;;;;;;11.73;5.10;;;10.40;99.90;;;;;;5075029;28;20491;-70
2023/04/14 09:03:37;;;;;;;21.00;4.03;;;10.50;99.90;;;;;;5083253;28;20788;-71
2023/04/14 09:06:23;;;;;;;15.13;4.30;;;10.50;99.90;;;;;;5078453;28;20448;-70
2023/04/14 09:09:09;;;;;;;16.60;4.70;;;10.60;99.90;;;;;;5076633;28;20436;-71
2023/04/14 09:11:56;;;;;;;12.93;5.13;;;10.70;99.90;;;;;;5081063;28;20587;-70
2023/04/14 09:14:44;;;;;;;10.00;3.50;;;10.70;99.90;;;;;;5082797;28;20448;-72
2023/04/14 09:17:31;;;;;;;13.50;4.57;;;10.80;99.90;;;;;;5080314;28;20452;-71
2023/04/14 09:20:18;;;;;;;16.10;4.37;;;10.90;99.90;;;;;;5083586;28;20455;-72
2023/04/14 09:23:04;;;;;;;9.67;3.57;;;10.90;99.90;;;;;;5072998;28;20422;-71
2023/04/14 09:25:50;;;;;;;11.57;3.97;;;11.00;99.90;;;;;;5077130;28;20519;-71
2023/04/14 09:28:35;;;;;;;14.53;3.77;;;11.10;99.90;;;;;;5080749;28;20433;-71
2023/04/14 09:31:21;;;;;;;10.73;3.13;;;11.10;99.90;;;;;;5075762;28;20476;-72
2023/04/14 09:34:16;;;;;;;8.90;3.33;;;11.20;99.90;;;;;;5088533;28;20427;-74
2023/04/14 09:37:06;;;;;;;9.13;2.87;;;11.30;99.90;;;;;;5087049;28;20574;-72
2023/04/14 09:39:54;;;;;;;7.40;2.80;;;11.40;99.90;;;;;;5081111;28;20931;-71
2023/04/14 09:42:41;;;;;;;17.07;5.43;;;11.40;99.90;;;;;;5090421;28;20559;-71
2023/04/14 09:45:41;;;;;;;9.97;3.20;;;11.50;99.90;;;;;;5086974;28;20964;-71
2023/04/14 09:48:27;;;;;;;11.23;2.93;;;11.70;99.90;;;;;;5087019;28;20521;-73
2023/04/14 09:51:13;;;;;;;13.20;3.27;;;11.80;99.90;;;;;;5081903;28;20516;-72
2023/04/14 09:54:03;;;;;;;13.10;3.13;;;12.00;99.90;;;;;;5075982;28;20561;-72
2023/04/14 09:56:48;;;;;;;8.80;2.60;;;12.10;94.20;;;;;;5077971;28;20420;-71
2023/04/14 09:59:35;;;;;;;14.43;3.03;;;12.20;96.80;;;;;;5082572;28;20496;-70
2023/04/14 10:02:21;;;;;;;8.73;3.20;;;12.30;91.80;;;;;;5085400;28;20451;-70
2023/04/14 10:05:07;;;;;;;13.70;4.00;;;12.30;91.30;;;;;;5081186;28;21034;-70
2023/04/14 10:07:53;;;;;;;8.07;2.80;;;12.40;93.10;;;;;;5088219;28;20507;-71
2023/04/14 10:10:40;;;;;;;7.03;3.03;;;12.60;92.10;;;;;;5079881;28;20555;-70
2023/04/14 10:13:25;;;;;;;10.50;2.77;;;12.70;90.80;;;;;;5085154;28;20821;-71
2023/04/14 10:16:11;;;;;;;9.40;2.80;;;12.90;88.10;;;;;;5086915;28;20856;-70
2023/04/14 10:18:57;;;;;;;6.63;2.40;;;12.80;78.10;;;;;;5083605;28;20598;-70
2023/04/14 10:21:43;;;;;;;12.07;3.00;;;12.90;77.00;;;;;;5081851;28;20445;-70
2023/04/14 10:24:28;;;;;;;11.03;3.27;;;13.00;79.40;;;;;;5078868;28;20523;-70
2023/04/14 10:27:15;;;;;;;7.13;2.60;;;13.10;79.20;;;;;;5076837;28;20505;-73
2023/04/14 10:30:01;;;;;;;5.67;2.60;;;13.20;76.60;;;;;;5079621;28;20477;-72
2023/04/14 10:32:47;;;;;;;12.50;3.00;;;13.30;77.40;;;;;;5084649;28;20565;-72
2023/04/14 10:35:39;;;;;;;8.97;2.80;;;13.30;68.00;;;;;;5088308;28;20944;-72
2023/04/14 10:38:37;;;;;;;8.93;2.80;;;13.00;63.40;;;;;;5089165;28;20433;-73
2023/04/14 10:41:24;;;;;;;13.23;2.60;;;13.00;64.10;;;;;;5079178;28;20531;-71
2023/04/14 10:44:25;;;;;;;9.40;2.60;;;13.00;64.10;;;;;;5076109;28;20422;-71
2023/04/14 10:47:22;;;;;;;8.53;2.57;;;13.10;62.60;;;;;;5081295;28;20398;-72
2023/04/14 10:50:13;;;;;;;6.70;2.00;;;13.40;63.10;;;;;;5086829;28;20471;-72
2023/04/14 10:53:08;;;;;;;5.20;1.50;;;13.60;59.70;;;;;;5090504;28;20428;-72
2023/04/14 10:55:54;;;;;;;7.73;2.50;;;13.80;58.10;;;;;;5076045;28;20445;-72
2023/04/14 10:58:40;;;;;;;9.47;2.73;;;13.90;57.10;;;;;;5081436;28;20440;-72
2023/04/14 11:01:30;;;;;;;10.40;2.70;;;14.10;54.30;;;;;;5084722;28;20978;-72
2023/04/14 11:04:19;;;;;;;5.50;1.87;;;14.30;54.50;;;;;;5080537;28;20453;-73
2023/04/14 11:07:09;;;;;;;10.83;2.53;;;14.40;49.40;;;;;;5083801;28;20465;-71
2023/04/14 11:10:00;;;;;;;12.90;2.50;;;14.50;49.50;;;;;;5079694;28;20489;-72
2023/04/14 11:12:47;;;;;;;7.63;2.27;;;14.60;43.40;;;;;;5086262;28;20959;-72
2023/04/14 11:15:47;;;;;;;15.03;2.93;;;14.70;46.50;;;;;;5083156;28;20466;-72
2023/04/14 11:18:37;;;;;;;8.83;2.23;;;14.70;41.50;;;;;;5084126;28;20434;-74
2023/04/14 11:21:24;;;;;;;7.40;2.07;;;14.80;42.90;;;;;;5078690;28;21038;-72
2023/04/14 11:24:11;;;;;;;4.70;2.30;;;14.90;43.90;;;;;;5079964;28;21006;-71
2023/04/14 11:26:57;;;;;;;6.07;1.70;;;15.10;42.30;;;;;;5082794;28;20451;-72
2023/04/14 11:29:47;;;;;;;7.50;2.10;;;15.20;46.30;;;;;;5083336;28;20513;-72
2023/04/14 11:32:45;;;;;;;10.63;2.50;;;15.40;48.40;;;;;;5082556;28;20886;-72
2023/04/14 11:35:32;;;;;;;6.90;2.00;;;15.40;40.50;;;;;;5077446;28;20887;-72
2023/04/14 11:38:18;;;;;;;5.80;2.27;;;15.40;42.50;;;;;;5074874;28;20873;-73
2023/04/14 11:41:04;;;;;;;8.53;2.40;;;15.60;39.70;;;;;;5087904;28;20476;-72
2023/04/14 11:43:51;;;;;;;11.27;2.80;;;15.50;35.50;;;;;;5089876;28;20562;-72
2023/04/14 11:46:38;;;;;;;10.70;2.53;;;15.40;36.60;;;;;;5079349;28;21086;-73
2023/04/14 11:49:34;;;;;;;6.30;2.30;;;15.30;34.50;;;;;;5079022;28;20447;-72
2023/04/14 11:52:21;;;;;;;10.40;2.50;;;15.30;31.10;;;;;;5081665;28;20584;-72
2023/04/14 11:55:08;;;;;;;9.60;2.20;;;15.30;31.80;;;;;;5082462;28;20440;-72
2023/04/14 11:57:54;;;;;;;7.03;2.03;;;15.30;34.50;;;;;;5081184;28;20492;-72
2023/04/14 12:00:40;;;;;;;8.97;2.30;;;15.70;35.00;;;;;;5081181;28;20788;-71
2023/04/14 12:03:28;;;;;;;5.97;1.70;;;16.00;31.30;;;;;;5078548;28;20422;-69
2023/04/14 12:06:14;;;;;;;8.13;1.50;;;16.20;25.70;;;;;;5082974;28;20497;-71
2023/04/14 12:09:02;;;;;;;3.50;1.23;;;16.30;26.10;;;;;;5073661;28;20428;-69
2023/04/14 12:11:54;;;;;;;10.13;1.70;;;16.40;24.60;;;;;;5084775;28;20465;-70
2023/04/14 12:14:40;;;;;;;5.97;2.00;;;16.50;24.40;;;;;;5086122;28;20432;-71
2023/04/14 12:17:26;;;;;;;6.83;2.30;;;16.40;27.00;;;;;;5082275;28;20939;-70
2023/04/14 12:20:18;;;;;;;8.60;1.90;;;16.00;28.70;;;;;;5079332;28;20958;-71
2023/04/14 12:23:05;;;;;;;7.30;1.83;;;15.60;28.00;;;;;;5081595;28;20970;-72
2023/04/14 12:25:52;;;;;;;7.90;2.00;;;15.30;26.20;;;;;;5080427;28;20481;-71
2023/04/14 12:28:40;;;;;;;7.20;2.10;;;14.90;27.70;;;;;;5080607;28;20949;-70
2023/04/14 12:31:29;;;;;;;10.27;1.80;;;14.80;30.00;;;;;;5075266;28;20465;-71
2023/04/14 12:34:17;;;;;;;6.63;2.00;;;14.60;27.80;;;;;;5081944;28;20490;-70
2023/04/14 12:37:07;;;;;;;3.40;1.73;;;14.50;28.20;;;;;;5082014;28;20475;-72
2023/04/14 12:39:56;;;;;;;7.30;1.90;;;14.30;29.10;;;;;;5079235;28;20846;-70
2023/04/14 12:42:48;;;;;;;7.40;2.20;;;14.20;30.50;;;;;;5080405;28;20545;-70
2023/04/14 12:45:41;;;;;;;5.90;2.47;;;14.20;28.70;;;;;;5084277;28;21046;-70
2023/04/14 12:48:42;;;;;;;5.33;1.60;;;14.20;28.40;;;;;;5086880;28;20439;-71
2023/04/14 12:51:28;;;;;;;8.33;1.67;;;14.30;28.30;;;;;;5083220;28;20479;-70
2023/04/14 12:54:13;;;;;;;8.40;2.10;;;14.30;28.00;;;;;;5078844;28;21001;-70
2023/04/14 12:56:59;;;;;;;8.97;2.50;;;14.20;28.10;;;;;;5071026;28;20444;-69
2023/04/14 12:59:46;;;;;;;11.40;1.90;;;14.20;28.40;;;;;;5079327;28;20898;-70
2023/04/14 13:02:34;;;;;;;6.67;1.47;;;14.20;28.70;;;;;;5086839;28;20452;-70
2023/04/14 13:05:20;;;;;;;9.93;1.80;;;14.20;28.20;;;;;;5080383;28;20614;-70
2023/04/14 13:08:05;;;;;;;19.30;2.10;;;14.20;25.20;;;;;;5086138;28;20410;-72
2023/04/14 13:10:51;;;;;;;8.50;2.20;;;14.70;26.80;;;;;;5082946;28;20437;-69
2023/04/14 13:13:36;;;;;;;6.47;2.03;;;15.30;25.60;;;;;;5083475;28;20426;-70
2023/04/14 13:16:24;;;;;;;11.60;2.10;;;15.90;24.50;;;;;;5086127;28;20419;-70
2023/04/14 13:19:10;;;;;;;4.93;2.13;;;16.50;24.60;;;;;;5090747;28;20462;-70
2023/04/14 13:21:55;;;;;;;8.77;2.30;;;17.10;24.20;;;;;;5082514;28;20414;-70
2023/04/14 13:24:41;;;;;;;11.07;2.27;;;17.60;24.40;;;;;;5079914;28;20900;-70
2023/04/14 13:27:27;;;;;;;9.77;1.97;;;18.00;22.60;;;;;;5085200;28;21298;-69
2023/04/14 13:30:13;;;;;;;4.97;1.50;;;17.50;19.30;;;;;;5079626;28;20447;-70
2023/04/14 13:33:00;;;;;;;5.27;1.70;;;17.10;20.90;;;;;;5082956;28;20446;-71
2023/04/14 13:35:45;;;;;;;8.60;2.63;;;16.70;22.10;;;;;;5083558;28;20454;-69
2023/04/14 13:38:32;;;;;;;8.00;2.60;;;16.30;23.50;;;;;;5086652;28;20448;-70
2023/04/14 13:41:18;;;;;;;8.60;1.93;;;16.10;24.60;;;;;;5088681;28;20637;-70
2023/04/14 13:44:04;;;;;;;5.37;1.80;;;15.90;23.50;;;;;;5084841;28;20533;-70
2023/04/14 13:46:51;;;;;;;5.33;1.80;;;15.70;24.80;;;;;;5086086;28;20906;-70
2023/04/14 13:49:38;;;;;;;5.70;1.97;;;15.60;26.20;;;;;;5092684;28;20448;-71
2023/04/14 13:52:24;;;;;;;5.40;2.13;;;15.50;25.70;;;;;;5078629;28;20483;-71
2023/04/14 13:55:09;;;;;;;4.37;1.70;;;15.30;25.90;;;;;;5085891;28;20463;-68
2023/04/14 13:57:55;;;;;;;8.37;1.97;;;15.10;24.30;;;;;;5082878;28;20418;-68
2023/04/14 14:00:41;;;;;;;9.03;2.13;;;15.00;26.10;;;;;;5088015;28;20499;-69
2023/04/14 14:03:26;;;;;;;5.90;1.80;;;15.00;27.30;;;;;;5076614;28;21321;-68
2023/04/14 14:06:14;;;;;;;5.87;2.03;;;15.20;27.90;;;;;;5088210;28;20520;-68
2023/04/14 14:09:01;;;;;;;3.80;1.63;;;15.20;26.80;;;;;;5081814;28;20439;-71
2023/04/14 14:11:47;;;;;;;5.33;1.67;;;15.20;26.20;;;;;;5081138;28;20427;-70
2023/04/14 14:14:32;;;;;;;9.00;2.07;;;15.50;25.80;;;;;;5080278;28;20440;-69
2023/04/14 14:17:18;;;;;;;7.37;2.00;;;16.00;24.90;;;;;;5083460;28;20408;-70
2023/04/14 14:20:05;;;;;;;8.80;1.83;;;16.70;24.80;;;;;;5086274;28;20942;-70
2023/04/14 14:22:52;;;;;;;8.83;1.83;;;17.30;24.80;;;;;;5080100;28;20494;-70
2023/04/14 14:25:39;;;;;;;4.83;1.67;;;17.70;20.70;;;;;;5084198;28;20585;-71
2023/04/14 14:28:25;;;;;;;6.20;1.87;;;18.00;17.80;;;;;;5082887;28;20569;-72
2023/04/14 14:31:11;;;;;;;9.43;2.50;;;17.90;19.80;;;;;;5086132;28;20449;-70
2023/04/14 14:33:56;;;;;;;3.30;1.30;;;17.80;20.90;;;;;;5086996;28;20415;-71
2023/04/14 14:36:43;;;;;;;12.60;1.90;;;17.60;21.00;;;;;;5080822;28;20398;-69